Time;durP1;ratioP1;P1;durP2;ratioP2;P2;SDS_P1;SDS_P2;PMS_P1;PMS_P2;Temp;Humidity;BMP_temperature;BMP_pressure;BME280_temperature;BME280_humidity;BME280_pressure;Samples;Min_cycle;Max_cycle;Signal;HPM_P1;HPM_P2
2023/10/22 00:01:28;;;;;;;;;0.00;0.00;;;;;12.30;100.00;99783.22;6366905;22;45323;-86
2023/10/22 00:04:01;;;;;;;;;0.00;0.00;;;;;12.32;100.00;99797.03;6366222;22;45488;-87
2023/10/22 00:06:26;;;;;;;;;0.00;0.00;;;;;12.36;100.00;99801.16;6368629;22;46158;-85
2023/10/22 00:08:52;;;;;;;;;0.00;0.00;;;;;12.34;100.00;99789.13;6368013;22;45390;-86
2023/10/22 00:11:19;;;;;;;;;0.00;0.00;;;;;12.33;100.00;99792.63;6368584;22;45309;-86
2023/10/22 00:13:45;;;;;;;;;0.00;0.00;;;;;12.33;100.00;99810.91;6366629;22;45338;-85
2023/10/22 00:16:10;;;;;;;;;0.00;0.00;;;;;12.38;100.00;99804.53;6365867;22;65767;-85
2023/10/22 00:18:35;;;;;;;;;1.00;1.00;;;;;12.36;100.00;99814.22;6365741;22;45518;-84
2023/10/22 00:21:26;;;;;;;;;0.00;0.00;;;;;12.40;100.00;99812.28;6339900;22;45256;-86
2023/10/22 00:23:54;;;;;;;;;0.00;0.00;;;;;12.38;100.00;99814.13;6366778;22;45362;-86
2023/10/22 00:26:19;;;;;;;;;0.00;0.00;;;;;12.43;100.00;99826.97;6366263;22;45279;-85
2023/10/22 00:28:44;;;;;;;;;0.00;0.00;;;;;12.46;100.00;99832.00;6366688;22;72162;-85
2023/10/22 00:31:10;;;;;;;;;0.00;0.00;;;;;12.47;100.00;99833.72;6338496;22;68683;-85
2023/10/22 00:33:35;;;;;;;;;0.00;0.00;;;;;12.49;100.00;99824.03;6392829;22;45493;-85
2023/10/22 00:36:01;;;;;;;;;0.00;0.00;;;;;12.50;100.00;99831.78;6365734;22;46364;-85
2023/10/22 00:38:26;;;;;;;;;0.00;0.00;;;;;12.47;100.00;99837.16;6367772;22;45163;-86
2023/10/22 00:41:04;;;;;;;;;;;;;;;;;;;;;
2023/10/22 00:43:30;;;;;;;;;0.00;0.00;;;;;12.42;100.00;99833.91;6360878;22;70751;-85
2023/10/22 00:45:58;;;;;;;;;0.00;0.00;;;;;12.39;100.00;99827.09;6366603;22;46259;-85
2023/10/22 00:48:48;;;;;;;;;0.00;0.00;;;;;12.43;100.00;99832.19;6365941;22;45269;-86
2023/10/22 00:51:14;;;;;;;;;0.00;0.00;;;;;12.51;100.00;99843.06;6366202;22;45217;-86
2023/10/22 00:53:41;;;;;;;;;0.00;0.00;;;;;12.51;100.00;99832.63;6366304;22;45334;-86
2023/10/22 00:56:09;;;;;;;;;0.00;0.00;;;;;12.52;100.00;99843.00;6367938;22;45421;-85
2023/10/22 00:58:36;;;;;;;;;0.00;0.00;;;;;12.55;100.00;99847.19;6366235;22;45286;-86
2023/10/22 01:01:11;;;;;;;;;0.00;0.00;;;;;12.59;100.00;99848.72;6368010;22;45317;-86
2023/10/22 01:03:38;;;;;;;;;1.00;1.00;;;;;12.59;100.00;99852.19;6366436;22;45191;-86
2023/10/22 01:06:06;;;;;;;;;0.00;0.00;;;;;12.66;100.00;99862.31;6367566;22;46106;-86
2023/10/22 01:08:38;;;;;;;;;0.00;0.00;;;;;12.57;100.00;99859.25;6367628;22;45260;-85
2023/10/22 01:11:10;;;;;;;;;0.00;0.00;;;;;12.64;100.00;99864.16;6367987;22;45214;-84
2023/10/22 01:13:37;;;;;;;;;0.00;0.00;;;;;12.64;100.00;99867.59;6366964;22;45462;-86
2023/10/22 01:16:41;;;;;;;;;0.00;0.00;;;;;12.62;100.00;99866.00;6365626;22;46532;-86
2023/10/22 01:19:12;;;;;;;;;0.00;0.00;;;;;12.65;100.00;99871.06;6367320;22;45172;-86
2023/10/22 01:21:40;;;;;;;;;0.00;0.00;;;;;12.64;100.00;99885.06;6366405;22;45304;-85
2023/10/22 01:24:08;;;;;;;;;0.00;0.00;;;;;12.66;100.00;99883.19;6366697;22;45309;-84
2023/10/22 01:26:40;;;;;;;;;0.00;0.00;;;;;12.69;100.00;99886.50;6367464;22;45553;-85
2023/10/22 01:29:07;;;;;;;;;0.00;0.00;;;;;12.65;100.00;99898.03;6367456;22;45274;-85
2023/10/22 01:31:36;;;;;;;;;0.00;0.00;;;;;12.64;100.00;99898.94;6367328;22;45209;-85
2023/10/22 01:34:01;;;;;;;;;1.00;1.00;;;;;12.63;100.00;99912.94;6339419;22;45498;-85
2023/10/22 01:36:29;;;;;;;;;0.00;0.00;;;;;12.62;100.00;99908.63;6366294;22;45367;-85
2023/10/22 01:38:59;;;;;;;;;4.50;0.00;;;;;12.62;100.00;99918.22;6365884;22;45285;-84
2023/10/22 01:41:54;;;;;;;;;0.00;0.00;;;;;12.68;100.00;99910.06;6367774;22;45270;-86
2023/10/22 01:44:22;;;;;;;;;6.00;1.00;;;;;12.65;100.00;99916.31;6367151;22;45347;-85
2023/10/22 01:46:47;;;;;;;;;0.75;0.00;;;;;12.67;100.00;99921.47;6339003;22;47029;-85
2023/10/22 01:49:24;;;;;;;;;0.00;0.00;;;;;12.68;100.00;99925.75;6365587;22;45410;-85
2023/10/22 01:51:57;;;;;;;;;0.00;0.00;;;;;12.68;100.00;99923.97;6392566;22;45309;-85
2023/10/22 01:54:24;;;;;;;;;0.00;0.00;;;;;12.66;100.00;99917.16;6367422;22;45415;-85
2023/10/22 01:56:50;;;;;;;;;0.00;0.00;;;;;12.70;100.00;99922.16;6365808;22;47193;-86
2023/10/22 01:59:15;;;;;;;;;0.00;0.00;;;;;12.65;100.00;99918.91;6365259;22;45307;-85
2023/10/22 02:01:42;;;;;;;;;0.50;0.00;;;;;12.69;100.00;99924.84;6365998;22;45684;-85
2023/10/22 02:04:30;;;;;;;;;;;;;;;;;;;;;
2023/10/22 02:07:05;;;;;;;;;0.00;0.00;;;;;12.65;100.00;99926.75;6361184;22;74701;-86
2023/10/22 02:09:46;;;;;;;;;;;;;;;;;;;;;
2023/10/22 02:12:36;;;;;;;;;0.00;0.00;;;;;12.64;100.00;99940.72;6356896;22;70110;-85
2023/10/22 02:15:10;;;;;;;;;0.00;0.00;;;;;12.65;100.00;99967.66;6348328;22;45443;-85
2023/10/22 02:17:37;;;;;;;;;0.00;0.00;;;;;12.68;100.00;99949.25;6367175;22;47024;-86
2023/10/22 02:20:03;;;;;;;;;0.50;0.00;;;;;12.66;100.00;99951.91;6367695;22;45282;-85
2023/10/22 02:22:33;;;;;;;;;0.00;0.00;;;;;12.65;100.00;99947.63;6366007;22;45329;-86
2023/10/22 02:25:07;;;;;;;;;0.00;0.00;;;;;12.66;100.00;99951.09;6365930;22;45304;-87
2023/10/22 02:27:33;;;;;;;;;0.00;0.00;;;;;12.65;100.00;99950.25;6365523;22;45304;-84
2023/10/22 02:33:12;;;;;;;;;0.00;0.00;;;;;12.63;100.00;99967.75;6350189;22;45313;-87
2023/10/22 02:35:40;;;;;;;;;0.00;0.00;;;;;12.67;100.00;99964.06;6365620;22;45539;-84
2023/10/22 02:38:13;;;;;;;;;0.00;0.00;;;;;12.69;100.00;99957.00;6365188;22;46268;-86
2023/10/22 02:40:39;;;;;;;;;0.00;0.00;;;;;12.69;100.00;99977.06;6365437;22;45547;-85
2023/10/22 02:43:05;;;;;;;;;0.00;0.00;;;;;12.68;100.00;99972.75;6366584;22;45249;-86
2023/10/22 02:45:30;;;;;;;;;0.00;0.00;;;;;12.70;100.00;99965.66;6365474;22;45495;-85
2023/10/22 02:48:09;;;;;;;;;0.00;0.00;;;;;12.74;100.00;99978.50;6364250;22;60821;-85
2023/10/22 02:50:38;;;;;;;;;0.50;0.00;;;;;12.64;100.00;99968.59;6361591;22;45331;-85
2023/10/22 02:53:04;;;;;;;;;4.00;0.00;;;;;12.73;100.00;99983.81;6366841;22;45333;-85
2023/10/22 02:55:58;;;;;;;;;0.00;0.00;;;;;12.70;100.00;99976.97;6365345;22;45424;-86
2023/10/22 02:58:28;;;;;;;;;0.00;0.00;;;;;12.68;100.00;99977.97;6364910;22;45566;-85
2023/10/22 03:00:55;;;;;;;;;0.00;0.00;;;;;12.68;100.00;99981.41;6369057;22;45252;-85
2023/10/22 03:03:38;;;;;;;;;0.00;0.00;;;;;12.72;100.00;100003.88;6366910;22;45282;-85
2023/10/22 03:06:06;;;;;;;;;0.00;0.00;;;;;12.67;100.00;100000.63;6367092;22;45348;-85
2023/10/22 03:08:41;;;;;;;;;0.00;0.00;;;;;12.65;100.00;100009.44;6368080;22;47307;-85
2023/10/22 03:11:15;;;;;;;;;0.00;0.00;;;;;12.66;100.00;99992.88;6368247;22;45240;-85
2023/10/22 03:13:51;;;;;;;;;0.00;0.00;;;;;12.67;100.00;100002.41;6368535;22;45250;-84
2023/10/22 03:16:21;;;;;;;;;0.00;0.00;;;;;12.63;100.00;100006.94;6368423;22;45402;-85
2023/10/22 03:18:50;;;;;;;;;0.00;0.00;;;;;12.63;100.00;100022.59;6366532;22;46116;-85
2023/10/22 03:21:16;;;;;;;;;0.00;0.00;;;;;12.65;100.00;100017.25;6366762;22;45263;-85
2023/10/22 03:23:42;;;;;;;;;0.00;0.00;;;;;12.57;100.00;100021.13;6368937;22;45241;-85
2023/10/22 03:26:13;;;;;;;;;0.00;0.00;;;;;12.59;100.00;100018.41;6368393;22;45283;-85
2023/10/22 03:28:38;;;;;;;;;0.00;0.00;;;;;12.56;100.00;100019.41;6368012;22;45699;-84
2023/10/22 03:31:04;;;;;;;;;0.00;0.00;;;;;12.57;100.00;100017.66;6368805;22;45168;-85
2023/10/22 03:33:33;;;;;;;;;0.00;0.00;;;;;12.55;100.00;100037.75;6367050;22;45234;-85
2023/10/22 03:36:09;;;;;;;;;0.00;0.00;;;;;12.59;100.00;100034.06;6366704;22;45478;-85
2023/10/22 03:38:46;;;;;;;;;0.00;0.00;;;;;12.62;100.00;100040.94;6368140;22;46828;-85
2023/10/22 03:41:12;;;;;;;;;0.00;0.00;;;;;12.61;100.00;100032.28;6368330;22;45348;-84
2023/10/22 03:43:37;;;;;;;;;0.00;0.00;;;;;12.63;100.00;100034.78;6340442;22;45497;-84
2023/10/22 03:46:02;;;;;;;;;0.00;0.00;;;;;12.62;100.00;100033.94;6366622;22;45370;-83
2023/10/22 03:48:40;;;;;;;;;;;;;;;;;;;;;
2023/10/22 03:51:06;;;;;;;;;0.00;0.00;;;;;12.57;100.00;100068.13;6367267;22;73002;-84
2023/10/22 03:53:31;;;;;;;;;0.00;0.00;;;;;12.58;100.00;100054.13;6368242;22;54466;-85
2023/10/22 03:55:57;;;;;;;;;0.00;0.00;;;;;12.59;100.00;100062.78;6366274;22;45294;-84
2023/10/22 03:58:25;;;;;;;;;0.00;0.00;;;;;12.54;100.00;100065.63;6367926;22;45591;-85
2023/10/22 04:00:50;;;;;;;;;0.00;0.00;;;;;12.57;100.00;100072.47;6368009;22;45281;-85
2023/10/22 04:03:27;;;;;;;;;0.00;0.00;;;;;12.49;100.00;100061.56;6366576;22;45353;-87
2023/10/22 04:05:56;;;;;;;;;0.00;0.00;;;;;12.51;100.00;100073.59;6368317;22;45523;-84
2023/10/22 04:08:41;;;;;;;;;0.00;0.00;;;;;12.53;100.00;100078.75;6368007;22;46383;-86
2023/10/22 04:11:07;;;;;;;;;0.00;0.00;;;;;12.51;100.00;100081.44;6367760;22;45267;-85
2023/10/22 04:13:34;;;;;;;;;0.00;0.00;;;;;12.52;100.00;100085.75;6367296;22;45285;-85
2023/10/22 04:16:13;;;;;;;;;0.00;0.00;;;;;12.56;100.00;100087.28;6366477;22;45414;-85
2023/10/22 04:18:58;;;;;;;;;0.00;0.00;;;;;12.54;100.00;100088.31;6367977;22;47412;-85
2023/10/22 04:21:24;;;;;;;;;0.00;0.00;;;;;12.50;100.00;100099.78;6366528;22;45323;-85
2023/10/22 04:23:50;;;;;;;;;0.00;0.00;;;;;12.50;100.00;100108.47;6366726;22;45241;-85
2023/10/22 04:26:16;;;;;;;;;0.00;0.00;;;;;12.52;100.00;100100.59;6367113;22;45181;-84
2023/10/22 04:28:47;;;;;;;;;3.00;3.00;;;;;12.54;100.00;100107.41;6365720;22;66268;-85
2023/10/22 04:31:15;;;;;;;;;0.00;0.00;;;;;12.56;100.00;100102.97;6368288;22;45447;-85
2023/10/22 04:33:41;;;;;;;;;0.00;0.00;;;;;12.55;100.00;100118.69;6368400;22;45253;-85
2023/10/22 04:36:14;;;;;;;;;0.00;0.00;;;;;12.59;100.00;100121.09;6339848;22;45444;-85
2023/10/22 04:38:40;;;;;;;;;0.00;0.00;;;;;12.57;100.00;100119.47;6365956;22;47095;-85
2023/10/22 04:41:10;;;;;;;;;0.25;0.00;;;;;12.60;100.00;100132.38;6365330;22;66415;-85
2023/10/22 04:43:37;;;;;;;;;0.00;0.00;;;;;12.59;100.00;100117.63;6368757;22;45330;-85
2023/10/22 04:46:03;;;;;;;;;0.00;0.00;;;;;12.56;100.00;100125.63;6366654;22;45474;-84
2023/10/22 04:48:36;;;;;;;;;0.00;0.00;;;;;12.54;100.00;100130.06;6366108;22;45360;-86
2023/10/22 04:51:09;;;;;;;;;0.00;0.00;;;;;12.52;100.00;100134.53;6367988;22;45262;-85
2023/10/22 04:53:37;;;;;;;;;0.00;0.00;;;;;12.52;100.00;100135.34;6366694;22;45332;-85
2023/10/22 04:56:12;;;;;;;;;1.00;0.00;;;;;12.49;100.00;100143.31;6368113;22;45472;-85
2023/10/22 04:58:37;;;;;;;;;0.00;0.00;;;;;12.53;100.00;100147.47;6367800;22;46061;-85
2023/10/22 05:01:34;;;;;;;;;0.00;0.00;;;;;12.48;100.00;100149.47;6366633;22;45769;-85
2023/10/22 05:04:12;;;;;;;;;0.00;0.00;;;;;12.50;100.00;100165.91;6366537;22;45393;-85
2023/10/22 05:06:37;;;;;;;;;0.00;0.00;;;;;12.50;100.00;100170.25;6366861;22;45352;-84
2023/10/22 05:09:03;;;;;;;;;0.00;0.00;;;;;12.50;100.00;100185.94;6365735;22;45228;-84
2023/10/22 05:11:33;;;;;;;;;0.75;0.75;;;;;12.53;100.00;100177.97;6392965;22;45480;-85
2023/10/22 05:13:59;;;;;;;;;6.00;0.00;;;;;12.49;100.00;100190.31;6366569;22;45353;-85
2023/10/22 05:16:24;;;;;;;;;0.00;0.00;;;;;12.53;100.00;100197.06;6367883;22;45146;-86
2023/10/22 05:18:57;;;;;;;;;0.00;0.00;;;;;12.49;100.00;100203.34;6366204;22;46022;-84
2023/10/22 05:21:22;;;;;;;;;0.00;0.00;;;;;12.53;100.00;100197.06;6366571;22;70609;-85
2023/10/22 05:23:48;;;;;;;;;0.00;0.00;;;;;12.60;100.00;100200.25;6366442;22;45261;-85
2023/10/22 05:26:13;;;;;;;;;0.00;0.00;;;;;12.63;100.00;100207.97;6368329;22;45237;-85
2023/10/22 05:28:41;;;;;;;;;1.00;0.00;;;;;12.58;100.00;100210.78;6366630;22;46138;-85
2023/10/22 05:31:15;;;;;;;;;7.00;0.75;;;;;12.56;100.00;100217.00;6366314;22;45291;-84
2023/10/22 05:33:46;;;;;;;;;0.00;0.00;;;;;12.67;100.00;100213.91;6366394;22;45239;-85
2023/10/22 05:36:21;;;;;;;;;0.00;0.00;;;;;12.69;100.00;100225.13;6366862;22;45426;-85
2023/10/22 05:38:48;;;;;;;;;0.00;0.00;;;;;12.65;100.00;100221.81;6367481;22;46296;-85
2023/10/22 05:41:19;;;;;;;;;0.00;0.00;;;;;12.65;100.00;100247.03;6339629;22;45234;-86
2023/10/22 05:43:59;;;;;;;;;;;;;;;;;;;;;
2023/10/22 05:46:28;;;;;;;;;0.00;0.00;;;;;12.74;100.00;100224.00;6365507;22;70148;-85
2023/10/22 05:48:56;;;;;;;;;0.00;0.00;;;;;12.75;100.00;100232.66;6367411;22;45798;-86
2023/10/22 05:51:22;;;;;;;;;0.00;0.00;;;;;12.72;100.00;100238.88;6367623;22;45359;-84
2023/10/22 05:53:47;;;;;;;;;0.00;0.00;;;;;12.76;100.00;100245.66;6365915;22;45288;-85
2023/10/22 05:56:16;;;;;;;;;0.00;0.00;;;;;12.75;100.00;100250.94;6366202;22;45438;-85
2023/10/22 05:58:44;;;;;;;;;0.00;0.00;;;;;12.76;100.00;100252.66;6339275;22;48048;-84
2023/10/22 06:01:12;;;;;;;;;0.00;0.00;;;;;12.74;100.00;100254.44;6365833;22;45381;-84
2023/10/22 06:03:41;;;;;;;;;0.00;0.00;;;;;12.73;100.00;100252.78;6367728;22;45263;-85
2023/10/22 06:06:07;;;;;;;;;0.00;0.00;;;;;12.71;100.00;100258.06;6365970;22;45429;-84
2023/10/22 06:08:34;;;;;;;;;0.00;0.00;;;;;12.71;100.00;100255.44;6367971;22;45978;-85
2023/10/22 06:11:02;;;;;;;;;0.00;0.00;;;;;12.71;100.00;100263.28;6367450;22;45397;-84
2023/10/22 06:13:28;;;;;;;;;0.00;0.00;;;;;12.76;100.00;100269.16;6366048;22;45305;-85
2023/10/22 06:15:58;;;;;;;;;0.00;0.00;;;;;12.78;100.00;100269.09;6339352;22;45446;-84
2023/10/22 06:18:26;;;;;;;;;0.00;0.00;;;;;12.76;100.00;100277.00;6365597;22;48093;-84
2023/10/22 06:20:51;;;;;;;;;0.00;0.00;;;;;12.77;100.00;100281.28;6366808;22;45352;-85
2023/10/22 06:23:19;;;;;;;;;0.00;0.00;;;;;12.76;100.00;100292.66;6339436;22;45400;-84
2023/10/22 06:25:44;;;;;;;;;0.00;0.00;;;;;12.74;100.00;100304.94;6366008;22;45529;-85
2023/10/22 06:28:09;;;;;;;;;0.00;0.00;;;;;12.74;100.00;100302.34;6365932;22;45967;-85
2023/10/22 06:30:35;;;;;;;;;0.00;0.00;;;;;12.73;100.00;100305.00;6367194;22;45343;-84
2023/10/22 06:33:02;;;;;;;;;3.00;0.00;;;;;12.78;100.00;100311.72;6368396;22;45472;-95
2023/10/22 06:35:29;;;;;;;;;0.00;0.00;;;;;12.74;100.00;100311.91;6342904;22;45504;-92
2023/10/22 06:37:56;;;;;;;;;0.00;0.00;;;;;12.75;100.00;100309.22;6371444;22;45481;-94
2023/10/22 06:41:21;;;;;;;;;;;;;;;;;;;;;
2023/10/22 06:46:54;;;;;;;;;0.00;0.00;;;;;12.88;100.00;100316.53;6216707;22;45585;-93
2023/10/22 06:49:42;;;;;;;;;;;;;;;;;;;;;
2023/10/22 06:52:58;;;;;;;;;;;;;;;;;;;;;
2023/10/22 06:55:43;;;;;;;;;;;;;;;;;;;;;
2023/10/22 06:58:18;;;;;;;;;0.00;0.00;;;;;12.89;100.00;100347.81;6246499;22;68802;-96
2023/10/22 07:00:48;;;;;;;;;0.00;0.00;;;;;12.85;100.00;100343.66;6218814;22;46895;-95
2023/10/22 07:03:43;;;;;;;;;0.00;0.00;;;;;12.85;100.00;100346.25;6216118;22;45277;-89
2023/10/22 07:06:55;;;;;;;;;0.00;0.00;;;;;12.85;100.00;100359.31;6242780;22;45271;-96
2023/10/22 07:09:20;;;;;;;;;0.00;0.00;;;;;12.91;100.00;100361.66;6210935;22;45340;-89
2023/10/22 07:11:46;;;;;;;;;0.00;0.00;;;;;12.96;100.00;100371.88;6184801;22;46004;-90
2023/10/22 07:14:12;;;;;;;;;0.00;0.00;;;;;12.95;100.00;100376.25;6154115;22;45296;-94
2023/10/22 07:16:38;;;;;;;;;0.00;0.00;;;;;13.02;100.00;100371.63;6209977;22;45333;-86
2023/10/22 07:19:03;;;;;;;;;0.00;0.00;;;;;13.01;100.00;100382.13;6209328;22;45376;-90
2023/10/22 07:21:28;;;;;;;;;0.00;0.00;;;;;13.05;100.00;100391.53;6214922;22;47154;-87
2023/10/22 07:23:54;;;;;;;;;0.00;0.00;;;;;13.01;100.00;100398.66;6215670;22;55835;-91
2023/10/22 07:26:19;;;;;;;;;0.00;0.00;;;;;13.03;100.00;100407.28;6216550;22;45288;-91
2023/10/22 07:28:54;;;;;;;;;0.00;0.00;;;;;13.07;100.00;100403.59;6242105;22;45237;-94
2023/10/22 07:31:19;;;;;;;;;0.00;0.00;;;;;13.06;100.00;100401.91;6221771;22;45505;-89
2023/10/22 07:33:45;;;;;;;;;0.00;0.00;;;;;13.07;100.00;100411.44;6190168;22;45624;-88
2023/10/22 07:36:10;;;;;;;;;0.00;0.00;;;;;13.08;100.00;100418.38;6216504;22;45308;-90
2023/10/22 07:38:38;;;;;;;;;0.00;0.00;;;;;13.10;100.00;100418.31;6229550;22;45277;-90
2023/10/22 07:41:03;;;;;;;;;0.00;0.00;;;;;13.12;100.00;100437.38;6369304;22;46560;-87
2023/10/22 07:43:29;;;;;;;;;0.00;0.00;;;;;13.08;100.00;100439.28;6366808;22;66688;-92
2023/10/22 07:46:04;;;;;;;;;0.00;0.00;;;;;13.14;100.00;100446.00;6368495;22;45285;-90
2023/10/22 07:48:30;;;;;;;;;0.00;0.00;;;;;13.07;100.00;100440.19;6368993;22;45681;-91
2023/10/22 07:50:55;;;;;;;;;0.00;0.00;;;;;13.01;100.00;100434.41;6366736;22;45446;-94
2023/10/22 07:53:21;;;;;;;;;0.00;0.00;;;;;12.97;100.00;100444.97;6340140;22;45478;-92
2023/10/22 07:55:47;;;;;;;;;0.00;0.00;;;;;12.89;100.00;100441.84;6370102;22;45303;-93
2023/10/22 07:58:12;;;;;;;;;0.00;0.00;;;;;12.89;100.00;100452.31;6341064;22;45276;-90
2023/10/22 08:00:38;;;;;;;;;0.00;0.00;;;;;12.88;100.00;100461.03;6367055;22;49326;-94
2023/10/22 08:03:03;;;;;;;;;0.00;0.00;;;;;12.87;100.00;100448.03;6366826;22;46330;-86
2023/10/22 08:05:31;;;;;;;;;0.00;0.00;;;;;12.88;100.00;100452.38;6368542;22;45299;-91
2023/10/22 08:07:56;;;;;;;;;0.00;0.00;;;;;12.92;100.00;100454.75;6367348;22;45328;-88
2023/10/22 08:10:21;;;;;;;;;0.00;0.00;;;;;12.91;100.00;100450.47;6368507;22;45356;-91
2023/10/22 08:12:47;;;;;;;;;0.00;0.00;;;;;12.94;100.00;100457.31;6363641;22;45350;-89
2023/10/22 08:15:30;;;;;;;;;0.00;0.00;;;;;13.00;100.00;100458.81;6340210;22;45638;-90
2023/10/22 08:17:55;;;;;;;;;0.00;0.00;;;;;13.10;100.00;100457.50;6366137;22;45404;-87
2023/10/22 08:20:20;;;;;;;;;0.00;0.00;;;;;13.25;100.00;100463.81;6339826;22;47115;-87
2023/10/22 08:22:46;;;;;;;;;0.00;0.00;;;;;13.34;100.00;100456.44;6366374;22;45432;-87
2023/10/22 08:25:14;;;;;;;;;0.00;0.00;;;;;13.44;100.00;100464.72;6366870;22;45166;-87
2023/10/22 08:27:46;;;;;;;;;0.00;0.00;;;;;13.56;100.00;100465.94;6366805;22;45485;-87
2023/10/22 08:30:12;;;;;;;;;0.00;0.00;;;;;13.63;100.00;100483.06;6366721;22;45271;-87
2023/10/22 08:32:44;;;;;;;;;0.00;0.00;;;;;13.75;100.00;100473.78;6368245;22;45287;-87
2023/10/22 08:35:14;;;;;;;;;0.00;0.00;;;;;13.76;100.00;100483.31;6368472;22;45225;-86
2023/10/22 08:37:39;;;;;;;;;0.00;0.00;;;;;13.79;100.00;100490.19;6366742;22;45522;-87
2023/10/22 08:40:08;;;;;;;;;0.00;0.00;;;;;13.72;100.00;100495.72;6366825;22;46182;-87
2023/10/22 08:42:37;;;;;;;;;0.00;0.00;;;;;13.68;100.00;100490.69;6368201;22;45299;-87
2023/10/22 08:45:03;;;;;;;;;0.00;0.00;;;;;13.62;100.00;100502.25;6367789;22;45217;-87
2023/10/22 08:47:29;;;;;;;;;0.00;0.00;;;;;13.59;100.00;100514.63;6393115;22;45481;-87
2023/10/22 08:49:55;;;;;;;;;0.00;0.00;;;;;13.61;100.00;100513.63;6366296;22;45453;-87
2023/10/22 08:52:31;;;;;;;;;;;;;;;;;;;;;
2023/10/22 08:55:08;;;;;;;;;;;;;;;;;;;;;
2023/10/22 08:57:35;;;;;;;;;0.00;0.00;;;;;13.62;100.00;100525.81;6361015;22;68697;-87
2023/10/22 09:00:01;;;;;;;;;0.00;0.00;;;;;13.63;100.00;100522.28;6366071;22;45256;-86
2023/10/22 09:02:27;;;;;;;;;0.00;0.00;;;;;13.74;100.00;100527.00;6339932;22;45205;-87
2023/10/22 09:04:53;;;;;;;;;0.00;0.00;;;;;13.84;100.00;100545.78;6366767;22;45186;-87
2023/10/22 09:07:19;;;;;;;;;0.00;0.00;;;;;13.94;100.00;100545.25;6368514;22;45320;-86
2023/10/22 09:09:44;;;;;;;;;0.00;0.00;;;;;14.05;100.00;100544.75;6366427;22;47025;-87
2023/10/22 09:12:10;;;;;;;;;0.00;0.00;;;;;14.14;100.00;100551.34;6366462;22;45211;-87
2023/10/22 09:14:36;;;;;;;;;0.00;0.00;;;;;14.20;100.00;100558.91;6366521;22;45316;-87
2023/10/22 09:17:20;;;;;;;;;0.00;0.00;;;;;14.31;100.00;100561.03;6366416;22;45414;-87
2023/10/22 09:19:51;;;;;;;;;0.00;0.00;;;;;14.44;100.00;100561.28;6366633;22;47110;-86
2023/10/22 09:22:35;;;;;;;;;0.00;0.00;;;;;14.62;100.00;100565.69;6366908;22;45242;-87
2023/10/22 09:25:03;;;;;;;;;0.00;0.00;;;;;14.77;100.00;100568.47;6368112;22;45543;-87
2023/10/22 09:27:32;;;;;;;;;0.00;0.00;;;;;14.94;100.00;100578.97;6367065;22;45529;-87
2023/10/22 09:30:02;;;;;;;;;0.00;0.00;;;;;15.04;100.00;100566.25;6365960;22;46412;-87
2023/10/22 09:32:30;;;;;;;;;0.00;0.00;;;;;15.22;100.00;100585.44;6366336;22;45253;-86
2023/10/22 09:35:13;;;;;;;;;0.00;0.00;;;;;15.32;100.00;100588.44;6368562;22;45303;-86
2023/10/22 09:37:50;;;;;;;;;0.00;0.00;;;;;15.43;100.00;100584.38;6366835;22;45646;-87
2023/10/22 09:40:30;;;;;;;;;0.00;0.00;;;;;15.49;100.00;100583.19;6367955;22;46063;-86
2023/10/22 09:43:02;;;;;;;;;0.00;0.00;;;;;15.48;100.00;100582.31;6366526;22;45354;-87
2023/10/22 09:45:29;;;;;;;;;0.00;0.00;;;;;15.50;100.00;100584.88;6368151;22;45453;-87
2023/10/22 09:48:05;;;;;;;;;0.00;0.00;;;;;15.49;100.00;100589.28;6367539;22;45470;-86
2023/10/22 09:50:31;;;;;;;;;0.00;0.00;;;;;15.55;100.00;100582.03;6366265;22;46182;-86
2023/10/22 09:52:59;;;;;;;;;0.00;0.00;;;;;15.65;100.00;100589.31;6365921;22;45313;-84
2023/10/22 09:55:28;;;;;;;;;0.00;0.00;;;;;15.68;100.00;100591.78;6368330;22;45437;-86
2023/10/22 09:57:59;;;;;;;;;0.00;0.00;;;;;15.81;100.00;100592.03;6365689;22;45429;-86
2023/10/22 10:00:25;;;;;;;;;0.00;0.00;;;;;15.85;100.00;100590.91;6365952;22;46228;-87
2023/10/22 10:02:52;;;;;;;;;0.00;0.00;;;;;15.91;100.00;100599.41;6366006;22;45293;-86
2023/10/22 10:05:20;;;;;;;;;0.00;0.00;;;;;16.02;100.00;100594.44;6366543;22;45249;-86
2023/10/22 10:07:51;;;;;;;;;0.00;0.00;;;;;16.18;100.00;100610.22;6366539;22;45205;-87
2023/10/22 10:10:17;;;;;;;;;0.00;0.00;;;;;16.26;100.00;100597.50;6341855;22;46155;-87
2023/10/22 10:12:42;;;;;;;;;0.00;0.00;;;;;16.33;100.00;100601.47;6368370;22;45285;-87
2023/10/22 10:15:48;;;;;;;;;0.00;0.00;;;;;16.31;100.00;100613.84;6367467;22;45332;-87
2023/10/22 10:18:13;;;;;;;;;0.00;0.00;;;;;16.21;100.00;100602.16;6368985;22;45477;-87
2023/10/22 10:20:49;;;;;;;;;;;;;;;;;;;;;
2023/10/22 10:23:20;;;;;;;;;0.00;0.00;;;;;16.28;100.00;100611.38;6366260;22;73981;-86
2023/10/22 10:25:48;;;;;;;;;0.00;0.00;;;;;16.19;100.00;100615.34;6367576;22;45303;-86
2023/10/22 10:28:14;;;;;;;;;0.00;0.00;;;;;16.19;100.00;100611.88;6367294;22;45238;-87
2023/10/22 10:30:40;;;;;;;;;0.00;0.00;;;;;16.17;100.00;100616.38;6368695;22;46036;-87
2023/10/22 10:33:14;;;;;;;;;0.00;0.00;;;;;16.21;100.00;100625.78;6369340;22;45237;-86
2023/10/22 10:35:47;;;;;;;;;0.00;0.00;;;;;16.29;100.00;100614.84;6367508;22;45388;-87
2023/10/22 10:38:21;;;;;;;;;0.00;0.00;;;;;16.35;100.00;100623.25;6368808;22;45296;-86
2023/10/22 10:40:55;;;;;;;;;0.00;0.00;;;;;16.41;100.00;100635.22;6366604;22;46284;-87
2023/10/22 10:43:59;;;;;;;;;0.00;0.00;;;;;16.58;100.00;100623.75;6368652;22;45405;-86
2023/10/22 10:46:26;;;;;;;;;0.00;0.00;;;;;16.86;100.00;100624.88;6368386;22;45494;-87
2023/10/22 10:48:52;;;;;;;;;0.00;0.00;;;;;17.19;100.00;100619.44;6368592;22;45536;-86
2023/10/22 10:51:22;;;;;;;;;0.00;0.00;;;;;17.51;100.00;100628.06;6368590;22;46605;-87
2023/10/22 10:54:14;;;;;;;;;0.00;0.00;;;;;17.84;100.00;100626.13;6369168;22;45247;-86
2023/10/22 10:57:00;;;;;;;;;0.00;0.00;;;;;18.15;100.00;100630.38;6368373;22;45330;-87
2023/10/22 10:59:35;;;;;;;;;0.00;0.00;;;;;18.50;100.00;100635.22;6368930;22;45458;-86
2023/10/22 11:02:06;;;;;;;;;0.00;0.00;;;;;18.58;100.00;100639.03;6368558;22;46203;-86
2023/10/22 11:04:37;;;;;;;;;0.00;0.00;;;;;19.10;100.00;100632.19;6393838;22;45397;-87
2023/10/22 11:07:04;;;;;;;;;0.75;0.75;;;;;21.55;100.00;100633.34;6368850;22;45304;-86
2023/10/22 11:09:39;;;;;;;;;0.00;0.00;;;;;23.84;100.00;100636.97;6368899;22;45331;-87
2023/10/22 11:12:24;;;;;;;;;0.00;0.00;;;;;25.17;100.00;100642.03;6368097;22;46259;-87
2023/10/22 11:15:16;;;;;;;;;0.00;0.00;;;;;25.94;76.54;100643.69;6367287;22;45357;-85
2023/10/22 11:17:44;;;;;;;;;3.00;0.00;;;;;26.32;82.22;100639.19;6349972;22;45285;-87
2023/10/22 11:20:20;;;;;;;;;0.00;0.00;;;;;26.46;75.43;100637.81;6368346;22;45598;-86
2023/10/22 11:22:46;;;;;;;;;0.00;0.00;;;;;26.42;71.19;100639.94;6393700;22;46104;-84
2023/10/22 11:25:19;;;;;;;;;0.00;0.00;;;;;26.61;75.79;100635.50;6367935;22;45281;-85
2023/10/22 11:27:59;;;;;;;;;0.00;0.00;;;;;27.10;75.35;100621.75;6367166;22;45315;-85
2023/10/22 11:30:38;;;;;;;;;0.00;0.00;;;;;27.21;63.72;100638.38;6367198;22;45356;-83
2023/10/22 11:33:11;;;;;;;;;0.00;0.00;;;;;27.72;73.16;100635.06;6368368;22;47046;-85
2023/10/22 11:35:42;;;;;;;;;0.00;0.00;;;;;28.37;66.54;100646.06;6368292;22;45257;-87
2023/10/22 11:38:22;;;;;;;;;0.00;0.00;;;;;28.63;66.28;100636.31;6368918;22;45339;-85
2023/10/22 11:41:03;;;;;;;;;;;;;;;;;;;;;
2023/10/22 11:43:39;;;;;;;;;;;;;;;;;;;;;
2023/10/22 11:46:14;;;;;;;;;;;;;;;;;;;;;
2023/10/22 11:48:56;;;;;;;;;;;;;;;;;;;;;
2023/10/22 11:51:27;;;;;;;;;0.00;0.00;;;;;29.55;54.40;100645.03;6367482;22;70262;-86
2023/10/22 11:54:00;;;;;;;;;0.00;0.00;;;;;29.64;57.38;100645.84;6366237;22;46348;-86
2023/10/22 11:56:35;;;;;;;;;0.00;0.00;;;;;29.43;52.80;100644.53;6367823;22;45305;-86
2023/10/22 11:59:10;;;;;;;;;0.00;0.00;;;;;29.24;51.18;100645.72;6368841;22;45265;-85
2023/10/22 12:01:35;;;;;;;;;0.00;0.00;;;;;29.07;53.80;100649.41;6368325;22;45446;-86
2023/10/22 12:04:02;;;;;;;;;0.00;0.00;;;;;28.81;51.55;100665.59;6368063;22;46012;-84
2023/10/22 12:06:28;;;;;;;;;1.00;1.00;;;;;28.54;51.52;100664.88;6366968;22;45282;-84